AVA917 MROC-SKBO
Flight info
| Callsign | AVA917 |
|---|---|
| Flight time | N/A |
| Altitude | 39000 |
| Route | ATENA4 ISEBA UL423 ILTUR UQ122 TIRTO TIRTO5E |
| Aircraft | A20N/M-SDE2E3FGHIRWXY/LB1 |
Departure
| Time | 2026-05-07 16:47 |
|---|---|
| Airport | Juan Santamaría International Airport (MROC) |
Arrival
| Time | N/A |
|---|---|
| Airport | El Dorado International Airport (SKBO) |
| Time | Latitude | Longitude | Altitude | Speed | Heading |
|---|---|---|---|---|---|
| 2026-05-07 16:26 | 9.99761 | -84.20301 | 3099 ft | 0 kts | 339° |
| 2026-05-07 16:37 | 9.99752 | -84.20297 | 3099 ft | 2 kts | 339° |
| 2026-05-07 16:37 | 9.99738 | -84.20292 | 3099 ft | 1 kts | 339° |
| 2026-05-07 16:37 | 9.99729 | -84.20288 | 3099 ft | 2 kts | 321° |
| 2026-05-07 16:38 | 9.99720 | -84.20276 | 3099 ft | 2 kts | 286° |
| 2026-05-07 16:38 | 9.99719 | -84.20261 | 3099 ft | 1 kts | 255° |
| 2026-05-07 16:38 | 9.99721 | -84.20256 | 3099 ft | 1 kts | 246° |
| 2026-05-07 16:38 | 9.99722 | -84.20253 | 3099 ft | 0 kts | 248° |
| 2026-05-07 16:41 | 9.99722 | -84.20255 | 3099 ft | 0 kts | 248° |
| 2026-05-07 16:41 | 9.99716 | -84.20271 | 3099 ft | 4 kts | 250° |
| 2026-05-07 16:41 | 9.99698 | -84.20322 | 3099 ft | 10 kts | 249° |
| 2026-05-07 16:41 | 9.99671 | -84.20393 | 3099 ft | 11 kts | 249° |
| 2026-05-07 16:42 | 9.99642 | -84.20470 | 3098 ft | 12 kts | 250° |
| 2026-05-07 16:42 | 9.99611 | -84.20553 | 3098 ft | 12 kts | 249° |
| 2026-05-07 16:42 | 9.99579 | -84.20638 | 3098 ft | 13 kts | 249° |
| 2026-05-07 16:42 | 9.99543 | -84.20733 | 3098 ft | 16 kts | 249° |
| 2026-05-07 16:43 | 9.99494 | -84.20862 | 3097 ft | 21 kts | 249° |
| 2026-05-07 16:43 | 9.99443 | -84.20999 | 3097 ft | 20 kts | 249° |
| 2026-05-07 16:43 | 9.99392 | -84.21136 | 3096 ft | 21 kts | 249° |
| 2026-05-07 16:43 | 9.99334 | -84.21288 | 3096 ft | 23 kts | 249° |
| 2026-05-07 16:44 | 9.99278 | -84.21442 | 3096 ft | 23 kts | 250° |
| 2026-05-07 16:44 | 9.99221 | -84.21592 | 3095 ft | 22 kts | 250° |
| 2026-05-07 16:44 | 9.99165 | -84.21742 | 3095 ft | 22 kts | 249° |
| 2026-05-07 16:44 | 9.99110 | -84.21890 | 3094 ft | 18 kts | 250° |
| 2026-05-07 16:45 | 9.99103 | -84.21999 | 3094 ft | 15 kts | 280° |
| 2026-05-07 16:45 | 9.99092 | -84.22105 | 3094 ft | 15 kts | 249° |
| 2026-05-07 16:45 | 9.99034 | -84.22195 | 3093 ft | 13 kts | 198° |
| 2026-05-07 16:45 | 9.98968 | -84.22184 | 3093 ft | 7 kts | 159° |
| 2026-05-07 16:46 | 9.98923 | -84.22158 | 3093 ft | 7 kts | 114° |
| 2026-05-07 16:46 | 9.98939 | -84.22085 | 3094 ft | 22 kts | 68° |
| 2026-05-07 16:46 | 9.99078 | -84.21716 | 3095 ft | 87 kts | 68° |
| 2026-05-07 16:46 | 9.99363 | -84.20953 | 3097 ft | 142 kts | 70° |
| 2026-05-07 16:47 | 9.99764 | -84.19883 | 3250 ft | 172 kts | 70° |
| 2026-05-07 16:47 | 10.00195 | -84.18747 | 3759 ft | 176 kts | 68° |
| 2026-05-07 16:47 | 10.00665 | -84.17593 | 4380 ft | 178 kts | 68° |
| 2026-05-07 16:47 | 10.00987 | -84.16406 | 4954 ft | 177 kts | 89° |
| 2026-05-07 16:48 | 10.00698 | -84.15197 | 5371 ft | 180 kts | 117° |
| 2026-05-07 16:48 | 9.99851 | -84.14263 | 5769 ft | 185 kts | 146° |
| 2026-05-07 16:48 | 9.98616 | -84.13842 | 6173 ft | 191 kts | 175° |
| 2026-05-07 16:48 | 9.97315 | -84.14102 | 6582 ft | 196 kts | 207° |
| 2026-05-07 16:49 | 9.96299 | -84.15026 | 7001 ft | 200 kts | 239° |
| 2026-05-07 16:49 | 9.95899 | -84.16363 | 7427 ft | 200 kts | 272° |
| 2026-05-07 16:49 | 9.96191 | -84.17720 | 7877 ft | 199 kts | 291° |
| 2026-05-07 16:49 | 9.96693 | -84.19042 | 8249 ft | 207 kts | 293° |
| 2026-05-07 16:50 | 9.97228 | -84.20440 | 8514 ft | 222 kts | 292° |
| 2026-05-07 16:50 | 9.97788 | -84.21967 | 8792 ft | 237 kts | 289° |
| 2026-05-07 16:50 | 9.97981 | -84.23680 | 8947 ft | 260 kts | 256° |
| 2026-05-07 16:50 | 9.97143 | -84.25349 | 9265 ft | 274 kts | 229° |
| 2026-05-07 16:51 | 9.95855 | -84.26823 | 9618 ft | 291 kts | 227° |
| 2026-05-07 16:51 | 9.94505 | -84.28406 | 10059 ft | 303 kts | 228° |
| 2026-05-07 16:51 | 9.93128 | -84.30065 | 10555 ft | 314 kts | 229° |
| 2026-05-07 16:51 | 9.91697 | -84.31814 | 10854 ft | 331 kts | 229° |
| 2026-05-07 16:52 | 9.90090 | -84.33585 | 11171 ft | 344 kts | 216° |
| 2026-05-07 16:52 | 9.87956 | -84.34660 | 11695 ft | 344 kts | 191° |
| 2026-05-07 16:52 | 9.85598 | -84.34797 | 12354 ft | 339 kts | 168° |
| 2026-05-07 16:52 | 9.83400 | -84.34037 | 12965 ft | 336 kts | 148° |
| 2026-05-07 16:53 | 9.81403 | -84.32800 | 13596 ft | 337 kts | 145° |